Time;durP1;ratioP1;P1;durP2;ratioP2;P2;SDS_P1;SDS_P2;PMS_P1;PMS_P2;Temp;Humidity;BMP_temperature;BMP_pressure;BME280_temperature;BME280_humidity;BME280_pressure;Samples;Min_cycle;Max_cycle;Signal;HPM_P1;HPM_P2
2022/04/04 00:00:45;;;;;;;0.40;0.20;;;0.50;99.90;;;;;;5029102;28;20395;-79
2022/04/04 00:03:11;;;;;;;0.40;0.20;;;0.50;99.90;;;;;;5031001;28;20383;-77
2022/04/04 00:05:38;;;;;;;0.40;0.30;;;0.60;99.90;;;;;;5030993;28;20383;-77
2022/04/04 00:08:04;;;;;;;0.40;0.20;;;0.50;99.90;;;;;;5027762;28;21005;-77
2022/04/04 00:10:30;;;;;;;0.40;0.20;;;0.40;99.90;;;;;;5023845;28;20401;-77
2022/04/04 00:12:56;;;;;;;0.40;0.20;;;0.40;99.90;;;;;;5009807;28;20432;-80
2022/04/04 00:15:22;;;;;;;0.40;0.20;;;0.40;99.90;;;;;;5029208;28;20447;-77
2022/04/04 00:17:47;;;;;;;0.40;0.20;;;0.40;99.90;;;;;;5030883;28;20379;-77
2022/04/04 00:20:13;;;;;;;0.40;0.20;;;0.30;99.90;;;;;;5028689;28;20545;-79
2022/04/04 00:22:39;;;;;;;0.40;0.20;;;0.30;99.90;;;;;;5030438;28;20393;-77
2022/04/04 00:25:06;;;;;;;0.40;0.20;;;0.20;99.90;;;;;;5029858;28;20383;-78
2022/04/04 00:27:31;;;;;;;0.40;0.20;;;0.20;99.90;;;;;;5029272;28;20383;-77
2022/04/04 00:29:57;;;;;;;0.40;0.20;;;0.10;99.90;;;;;;5030298;28;20843;-77
2022/04/04 00:32:23;;;;;;;0.40;0.20;;;0.10;99.90;;;;;;5028349;28;20510;-77
2022/04/04 00:34:48;;;;;;;0.40;0.20;;;0.20;99.90;;;;;;5030099;28;20395;-77
2022/04/04 00:37:14;;;;;;;0.40;0.20;;;0.10;99.90;;;;;;5028754;28;20437;-78
2022/04/04 00:39:40;;;;;;;1.00;1.00;;;0.10;99.90;;;;;;5030526;28;20874;-77
2022/04/04 00:42:06;;;;;;;0.40;0.30;;;0.10;99.90;;;;;;5029122;28;20399;-77
2022/04/04 00:44:32;;;;;;;0.60;0.50;;;0.10;99.90;;;;;;5029922;28;20387;-77
2022/04/04 00:46:58;;;;;;;0.40;0.20;;;0.10;99.90;;;;;;5030527;28;20375;-77
2022/04/04 00:49:24;;;;;;;0.40;0.20;;;0.20;99.90;;;;;;5028072;28;20399;-77
2022/04/04 00:51:50;;;;;;;0.50;0.40;;;0.20;99.90;;;;;;5030224;28;20419;-77
2022/04/04 00:54:16;;;;;;;0.40;0.20;;;0.10;99.90;;;;;;5030156;28;20468;-83
2022/04/04 00:56:42;;;;;;;0.40;0.20;;;0.10;99.90;;;;;;5029948;28;20375;-77
2022/04/04 00:59:13;;;;;;;0.40;0.20;;;0.20;99.90;;;;;;5030900;28;20402;-77
2022/04/04 01:01:40;;;;;;;0.40;0.20;;;0.20;99.90;;;;;;5030039;28;20441;-77
2022/04/04 01:04:08;;;;;;;0.40;0.20;;;0.10;99.90;;;;;;5030127;28;20383;-77
2022/04/04 01:06:35;;;;;;;0.40;0.40;;;0.10;99.90;;;;;;5028385;28;20395;-77
2022/04/04 01:09:03;;;;;;;0.40;0.20;;;0.10;99.90;;;;;;5029723;28;20387;-77
2022/04/04 01:11:29;;;;;;;0.47;0.32;;;0.10;99.90;;;;;;5009976;28;20420;-84
2022/04/04 01:13:55;;;;;;;0.40;0.20;;;0.00;99.90;;;;;;5010136;28;20463;-77
2022/04/04 01:16:23;;;;;;;0.40;0.20;;;0.00;99.90;;;;;;5009855;28;20564;-77
2022/04/04 01:18:49;;;;;;;0.40;0.20;;;0.00;99.90;;;;;;5013168;28;20857;-77
2022/04/04 01:21:21;;;;;;;0.40;0.20;;;0.10;99.90;;;;;;5029827;28;20510;-77
2022/04/04 01:23:49;;;;;;;0.40;0.20;;;0.10;99.90;;;;;;5012675;28;20692;-78
2022/04/04 01:26:18;;;;;;;0.40;0.20;;;0.10;99.90;;;;;;5031763;28;20403;-77
2022/04/04 01:28:43;;;;;;;0.40;0.20;;;0.20;99.90;;;;;;5032477;28;20387;-81
2022/04/04 01:31:09;;;;;;;0.40;0.20;;;0.10;99.90;;;;;;5017708;28;20423;-77
2022/04/04 01:33:37;;;;;;;0.40;0.20;;;0.00;99.90;;;;;;5020758;28;20475;-77
2022/04/04 01:36:03;;;;;;;0.40;0.20;;;0.00;99.90;;;;;;5031876;28;21213;-77
2022/04/04 01:38:29;;;;;;;0.40;0.20;;;0.10;99.90;;;;;;5016986;28;20439;-77
2022/04/04 01:40:55;;;;;;;0.40;0.20;;;0.00;99.90;;;;;;5013057;28;20408;-78
2022/04/04 01:43:21;;;;;;;0.40;0.30;;;-0.20;99.90;;;;;;5013775;28;20447;-77
2022/04/04 01:48:38;;;;;;;0.40;0.20;;;-0.30;99.90;;;;;;5013587;28;20375;-78
2022/04/04 01:51:04;;;;;;;0.40;0.20;;;-0.40;99.90;;;;;;5011066;28;20463;-78
2022/04/04 01:53:31;;;;;;;0.40;0.20;;;-0.40;99.90;;;;;;5013241;28;20777;-77
2022/04/04 01:56:00;;;;;;;0.40;0.20;;;-0.30;99.90;;;;;;5013146;28;20389;-83
2022/04/04 01:58:26;;;;;;;0.60;0.50;;;-0.20;99.90;;;;;;5013605;28;20431;-77
2022/04/04 02:00:56;;;;;;;0.40;0.20;;;-0.20;99.90;;;;;;5011927;28;20440;-77
2022/04/04 02:03:23;;;;;;;0.50;0.50;;;-0.30;99.90;;;;;;5012739;28;20389;-77
2022/04/04 02:05:48;;;;;;;0.40;0.20;;;-0.40;99.90;;;;;;5011340;28;20981;-78
2022/04/04 02:08:14;;;;;;;0.40;0.20;;;-0.40;99.90;;;;;;5027477;28;20393;-77
2022/04/04 02:10:40;;;;;;;0.40;0.20;;;-0.40;99.90;;;;;;5026611;28;20394;-77
2022/04/04 02:13:06;;;;;;;0.70;0.70;;;-0.40;99.90;;;;;;5031468;28;20407;-80
2022/04/04 02:15:31;;;;;;;0.40;0.20;;;-0.50;99.90;;;;;;5031970;28;20403;-77
2022/04/04 02:17:57;;;;;;;0.40;0.20;;;-0.50;99.90;;;;;;5032652;28;20403;-77
2022/04/04 02:20:23;;;;;;;0.40;0.30;;;-0.40;99.90;;;;;;5031710;28;20435;-77
2022/04/04 02:22:49;;;;;;;0.40;0.20;;;-0.50;99.90;;;;;;5031447;28;20391;-77
2022/04/04 02:25:15;;;;;;;0.40;0.20;;;-0.60;99.90;;;;;;5032986;28;20391;-85
2022/04/04 02:27:41;;;;;;;0.40;0.20;;;-0.50;99.90;;;;;;5032584;28;20436;-77
2022/04/04 02:30:08;;;;;;;0.57;0.57;;;-0.50;99.90;;;;;;5032580;28;20482;-77
2022/04/04 02:32:33;;;;;;;0.40;0.20;;;-0.50;99.90;;;;;;5031587;28;20445;-78
2022/04/04 02:34:59;;;;;;;0.40;0.20;;;-0.50;99.90;;;;;;5032546;28;20739;-77
2022/04/04 02:37:25;;;;;;;0.40;0.20;;;-0.60;99.90;;;;;;5031019;28;20399;-85
2022/04/04 02:39:50;;;;;;;0.40;0.20;;;-0.60;99.90;;;;;;5032041;28;20387;-77
2022/04/04 02:42:16;;;;;;;2.00;0.90;;;-0.70;99.90;;;;;;5032329;28;20391;-77
2022/04/04 02:44:42;;;;;;;0.40;0.20;;;-0.70;99.90;;;;;;5031724;28;20848;-78
2022/04/04 02:47:08;;;;;;;0.40;0.20;;;-0.70;99.90;;;;;;5031165;28;20417;-77
2022/04/04 02:49:34;;;;;;;0.40;0.20;;;-0.70;99.90;;;;;;5031935;28;20402;-83
2022/04/04 02:51:59;;;;;;;0.40;0.40;;;-0.70;99.90;;;;;;5031809;28;20453;-77
2022/04/04 02:54:25;;;;;;;0.40;0.20;;;-0.70;99.90;;;;;;5030901;28;20422;-78
2022/04/04 02:56:51;;;;;;;0.40;0.20;;;-0.70;99.90;;;;;;5031174;28;20391;-77
2022/04/04 02:59:17;;;;;;;0.40;0.20;;;-0.70;99.90;;;;;;5032522;28;20386;-77
2022/04/04 03:01:48;;;;;;;0.40;0.20;;;-0.70;99.90;;;;;;5030311;28;20942;-85
2022/04/04 03:04:18;;;;;;;0.40;0.20;;;-0.80;99.90;;;;;;5032475;28;20383;-77
2022/04/04 03:06:44;;;;;;;0.40;0.20;;;-0.90;99.90;;;;;;5031355;28;20407;-84
2022/04/04 03:09:11;;;;;;;0.40;0.20;;;-0.80;99.90;;;;;;5030597;28;21037;-77
2022/04/04 03:11:37;;;;;;;0.40;0.20;;;-0.90;99.90;;;;;;5010584;28;20413;-79
2022/04/04 03:14:04;;;;;;;0.40;0.20;;;-0.90;99.90;;;;;;5010104;28;20406;-77
2022/04/04 03:16:30;;;;;;;0.68;0.68;;;-0.90;99.90;;;;;;5010666;28;20830;-77
2022/04/04 03:18:57;;;;;;;0.98;0.73;;;-0.10;99.90;;;;;;5011106;28;20388;-84
2022/04/04 03:21:23;;;;;;;0.40;0.20;;;-0.90;99.90;;;;;;5011632;28;20882;-77
2022/04/04 03:23:49;;;;;;;0.40;0.20;;;-1.00;99.90;;;;;;5011814;28;20427;-77
2022/04/04 03:26:15;;;;;;;0.70;0.70;;;-1.00;99.90;;;;;;5011295;28;20844;-77
2022/04/04 03:28:41;;;;;;;0.90;0.57;;;-1.00;99.90;;;;;;5012417;28;20472;-77
2022/04/04 03:31:07;;;;;;;0.50;0.50;;;-1.10;99.90;;;;;;5010139;28;20389;-78
2022/04/04 03:33:35;;;;;;;0.40;0.20;;;-1.10;99.90;;;;;;5012205;28;20401;-77
2022/04/04 03:36:01;;;;;;;0.40;0.30;;;-1.10;99.90;;;;;;5010983;28;20397;-77
2022/04/04 03:38:28;;;;;;;0.40;0.20;;;-1.10;99.90;;;;;;5011591;28;20392;-77
2022/04/04 03:40:54;;;;;;;0.40;0.20;;;-1.10;99.90;;;;;;5012324;28;20377;-78
2022/04/04 03:43:20;;;;;;;0.60;0.50;;;-1.10;99.90;;;;;;5011618;28;20397;-77
2022/04/04 03:45:46;;;;;;;0.40;0.20;;;-1.10;99.90;;;;;;5012004;28;20460;-78
2022/04/04 03:48:12;;;;;;;0.40;0.20;;;-1.20;99.90;;;;;;5011849;28;20464;-84
2022/04/04 03:50:39;;;;;;;0.40;0.20;;;-1.10;99.90;;;;;;5011515;28;20384;-77
2022/04/04 03:53:05;;;;;;;0.40;0.20;;;-1.20;99.90;;;;;;5012085;28;20409;-77
2022/04/04 03:55:39;;;;;;;0.40;0.20;;;-1.30;99.90;;;;;;5011236;28;20388;-78
2022/04/04 03:58:08;;;;;;;0.40;0.20;;;-1.20;99.90;;;;;;5012095;28;20385;-77
2022/04/04 04:00:34;;;;;;;0.40;0.20;;;-1.20;99.90;;;;;;5011209;28;20466;-78
2022/04/04 04:03:00;;;;;;;0.40;0.22;;;-1.30;99.90;;;;;;5011386;28;20483;-77
2022/04/04 04:05:25;;;;;;;0.40;0.30;;;-1.20;99.90;;;;;;5010886;28;20480;-83
2022/04/04 04:07:52;;;;;;;0.40;0.20;;;-1.20;99.90;;;;;;5011017;28;20381;-77
2022/04/04 04:10:17;;;;;;;0.40;0.20;;;-1.30;99.90;;;;;;5021496;28;20447;-77
2022/04/04 04:12:44;;;;;;;0.40;0.20;;;-1.30;99.90;;;;;;5030296;28;20403;-77
2022/04/04 04:15:13;;;;;;;0.40;0.20;;;-1.40;99.90;;;;;;5031078;28;20387;-77
2022/04/04 04:17:39;;;;;;;0.40;0.20;;;-1.40;99.90;;;;;;5029271;28;20423;-77
2022/04/04 04:20:20;;;;;;;0.40;0.20;;;-1.40;99.90;;;;;;5029829;28;20510;-77
2022/04/04 04:22:59;;;;;;;0.40;0.20;;;-1.40;99.90;;;;;;5030434;28;20450;-77
2022/04/04 04:25:27;;;;;;;1.10;0.60;;;-1.40;99.90;;;;;;5029879;28;20399;-77
2022/04/04 04:27:54;;;;;;;0.40;0.20;;;-1.40;99.90;;;;;;5030283;28;20383;-77
2022/04/04 04:30:20;;;;;;;0.40;0.20;;;-1.30;99.90;;;;;;5030859;28;20394;-77
2022/04/04 04:32:49;;;;;;;0.40;0.30;;;-1.40;99.90;;;;;;5030051;28;20414;-79
2022/04/04 04:35:15;;;;;;;0.40;0.30;;;-1.30;99.90;;;;;;5030050;28;20395;-77
2022/04/04 04:37:42;;;;;;;0.40;0.20;;;-1.30;99.90;;;;;;5030977;28;20395;-78
2022/04/04 04:40:08;;;;;;;0.40;0.30;;;-1.30;99.90;;;;;;5029929;28;20397;-77
2022/04/04 04:42:36;;;;;;;0.40;0.20;;;-1.40;99.90;;;;;;5030405;28;20416;-77
2022/04/04 04:45:05;;;;;;;0.40;0.20;;;-1.40;99.90;;;;;;5028496;28;20824;-77
2022/04/04 04:47:31;;;;;;;0.40;0.20;;;-1.40;99.90;;;;;;5029433;28;20441;-77
2022/04/04 04:49:58;;;;;;;0.40;0.20;;;-1.50;99.90;;;;;;5028842;28;20887;-83
2022/04/04 04:52:25;;;;;;;0.40;0.40;;;-1.50;99.90;;;;;;5030568;28;20752;-77
2022/04/04 04:54:51;;;;;;;0.40;0.20;;;-1.50;99.90;;;;;;5030788;28;20421;-77
2022/04/04 04:57:17;;;;;;;0.40;0.40;;;-1.30;99.90;;;;;;5029634;28;20613;-77
2022/04/04 04:59:43;;;;;;;0.40;0.20;;;-1.40;99.90;;;;;;5015850;28;20391;-77
2022/04/04 05:02:08;;;;;;;0.40;0.20;;;-1.50;99.90;;;;;;5029970;28;20398;-79
2022/04/04 05:04:34;;;;;;;0.40;0.20;;;-1.60;99.90;;;;;;5041048;28;20389;-77
2022/04/04 05:07:00;;;;;;;0.40;0.20;;;-1.60;99.90;;;;;;5033100;28;20883;-77
2022/04/04 05:09:25;;;;;;;0.40;0.30;;;-1.60;99.90;;;;;;5027642;28;20505;-77
2022/04/04 05:11:53;;;;;;;0.40;0.20;;;-1.50;99.90;;;;;;5030231;28;20434;-77
2022/04/04 05:14:19;;;;;;;0.40;0.30;;;-1.60;99.90;;;;;;5022887;28;20426;-77
2022/04/04 05:16:46;;;;;;;0.90;0.70;;;-1.50;99.90;;;;;;5034982;28;20474;-77
2022/04/04 05:19:13;;;;;;;0.40;0.20;;;-1.50;99.90;;;;;;5032001;28;20405;-78
2022/04/04 05:21:42;;;;;;;0.40;0.20;;;-1.60;99.90;;;;;;5034813;28;20505;-77
2022/04/04 05:24:08;;;;;;;1.30;0.70;;;-1.60;99.90;;;;;;5013279;28;20500;-77
2022/04/04 05:26:35;;;;;;;0.40;0.20;;;-1.60;99.90;;;;;;5031529;28;20387;-76
2022/04/04 05:29:01;;;;;;;0.40;0.20;;;-1.60;99.90;;;;;;5027260;28;20923;-79
2022/04/04 05:31:27;;;;;;;0.40;0.20;;;-1.60;99.90;;;;;;5029585;28;20403;-79
2022/04/04 05:33:54;;;;;;;0.40;0.20;;;-1.50;99.90;;;;;;5032923;28;20448;-76
2022/04/04 05:36:20;;;;;;;0.40;0.20;;;-1.50;99.90;;;;;;5040694;28;20404;-77
2022/04/04 05:38:50;;;;;;;0.40;0.20;;;-1.50;99.90;;;;;;5026417;28;20395;-76
2022/04/04 05:41:17;;;;;;;0.40;0.20;;;-1.40;99.90;;;;;;5025557;28;20437;-75
2022/04/04 05:43:44;;;;;;;0.40;0.20;;;-1.40;99.90;;;;;;5023682;28;20385;-76
2022/04/04 05:46:15;;;;;;;0.40;0.28;;;-1.40;99.90;;;;;;5026162;28;20400;-76
2022/04/04 05:48:41;;;;;;;0.40;0.28;;;-1.30;99.90;;;;;;5021922;28;20391;-76
2022/04/04 05:51:08;;;;;;;0.40;0.30;;;-1.20;99.90;;;;;;5025185;28;20486;-76
2022/04/04 05:53:34;;;;;;;0.40;0.30;;;-1.20;99.90;;;;;;5025499;28;20413;-76
2022/04/04 05:56:00;;;;;;;0.40;0.20;;;-1.20;99.90;;;;;;5021554;28;20496;-76
2022/04/04 05:58:26;;;;;;;0.70;0.70;;;-1.20;99.90;;;;;;5020724;28;20829;-76
2022/04/04 06:00:53;;;;;;;0.40;0.20;;;-1.20;99.90;;;;;;5023690;28;20454;-76
2022/04/04 06:03:19;;;;;;;0.40;0.20;;;-1.10;99.90;;;;;;5023217;28;20407;-76
2022/04/04 06:05:49;;;;;;;0.40;0.20;;;-1.00;99.90;;;;;;5025144;28;20887;-83
2022/04/04 06:08:18;;;;;;;0.40;0.20;;;-0.90;99.90;;;;;;5024263;28;20392;-76
2022/04/04 06:10:45;;;;;;;0.40;0.20;;;-1.00;99.90;;;;;;5022893;28;20395;-77
2022/04/04 06:13:17;;;;;;;0.40;0.20;;;-0.90;99.90;;;;;;5026691;28;20493;-76
2022/04/04 06:15:43;;;;;;;0.40;0.20;;;-0.80;99.90;;;;;;5025235;28;20763;-77
2022/04/04 06:18:10;;;;;;;0.40;0.30;;;-0.70;99.90;;;;;;5019398;28;20397;-76
2022/04/04 06:20:36;;;;;;;0.80;0.70;;;-0.70;99.90;;;;;;5022974;28;20407;-77
2022/04/04 06:23:03;;;;;;;0.40;0.20;;;-0.60;99.90;;;;;;5023392;28;20398;-77
2022/04/04 06:25:29;;;;;;;0.40;0.28;;;-0.60;99.90;;;;;;5024338;28;20391;-77
2022/04/04 06:27:54;;;;;;;0.40;0.20;;;-0.40;99.90;;;;;;5024966;28;20904;-76
2022/04/04 06:30:21;;;;;;;0.40;0.20;;;-0.30;99.90;;;;;;5022018;28;20958;-78
2022/04/04 06:32:46;;;;;;;0.40;0.20;;;-0.20;99.90;;;;;;5021363;28;20968;-77
2022/04/04 06:35:13;;;;;;;0.60;0.60;;;-0.30;99.90;;;;;;5022372;28;20385;-77
2022/04/04 06:37:40;;;;;;;0.40;0.20;;;-0.30;99.90;;;;;;5025378;28;20383;-76
2022/04/04 06:40:06;;;;;;;0.40;0.32;;;-0.30;99.90;;;;;;5023328;28;20377;-76
2022/04/04 06:42:36;;;;;;;0.40;0.20;;;-0.30;99.90;;;;;;5023373;28;20393;-75
2022/04/04 06:45:03;;;;;;;0.40;0.20;;;-0.20;99.90;;;;;;5024215;28;20379;-76
2022/04/04 06:47:30;;;;;;;0.60;0.50;;;-0.10;99.90;;;;;;5023565;28;20383;-75
2022/04/04 06:49:57;;;;;;;0.40;0.20;;;0.20;99.90;;;;;;5027068;28;20865;-75
2022/04/04 06:52:23;;;;;;;0.40;0.20;;;0.00;99.90;;;;;;5031378;28;20412;-77
2022/04/04 06:54:49;;;;;;;0.40;0.20;;;0.20;99.90;;;;;;5031078;28;20726;-75
2022/04/04 06:57:17;;;;;;;0.40;0.20;;;0.30;99.90;;;;;;5030986;28;20398;-75
2022/04/04 06:59:42;;;;;;;2.30;1.10;;;0.30;99.90;;;;;;5031405;28;20391;-76
2022/04/04 07:02:09;;;;;;;0.40;0.20;;;0.30;99.90;;;;;;5030799;28;20399;-76
2022/04/04 07:04:37;;;;;;;0.40;0.20;;;0.30;99.90;;;;;;5029988;28;20740;-75
2022/04/04 07:07:06;;;;;;;0.40;0.20;;;0.50;99.90;;;;;;5018825;28;20400;-75
2022/04/04 07:09:31;;;;;;;0.40;0.30;;;0.50;99.90;;;;;;5025861;28;20412;-76
2022/04/04 07:11:57;;;;;;;0.40;0.40;;;0.50;99.90;;;;;;5023358;28;21080;-77
2022/04/04 07:14:26;;;;;;;0.40;0.20;;;0.50;99.90;;;;;;5023112;28;20475;-77
2022/04/04 07:16:53;;;;;;;0.40;0.30;;;0.60;99.90;;;;;;5023666;28;20433;-76
2022/04/04 07:19:22;;;;;;;0.40;0.30;;;0.70;99.90;;;;;;5019887;28;20395;-77
2022/04/04 07:21:52;;;;;;;0.40;0.30;;;0.70;99.90;;;;;;5020848;28;20967;-77
2022/04/04 07:24:19;;;;;;;1.00;1.00;;;1.00;99.90;;;;;;5024919;28;20399;-74
2022/04/04 07:26:45;;;;;;;1.20;0.70;;;1.00;99.90;;;;;;5027141;28;20781;-78
2022/04/04 07:29:11;;;;;;;0.40;0.30;;;0.80;99.90;;;;;;5025760;28;20389;-76
2022/04/04 07:31:38;;;;;;;0.40;0.38;;;1.00;99.90;;;;;;5026483;28;20518;-83
2022/04/04 07:34:04;;;;;;;0.40;0.20;;;1.10;99.90;;;;;;5025454;28;20549;-76
2022/04/04 07:36:30;;;;;;;0.40;0.20;;;1.20;99.90;;;;;;5025430;28;20789;-76
2022/04/04 07:38:56;;;;;;;0.40;0.30;;;1.20;99.90;;;;;;5023785;28;20394;-76
2022/04/04 07:41:21;;;;;;;0.40;0.20;;;1.40;99.90;;;;;;5022866;28;20399;-76
2022/04/04 07:43:48;;;;;;;0.40;0.28;;;1.50;99.90;;;;;;5024907;28;20470;-77
2022/04/04 07:46:14;;;;;;;0.40;0.20;;;1.60;99.90;;;;;;5025806;28;20381;-75
2022/04/04 07:48:42;;;;;;;2.53;1.35;;;1.70;99.90;;;;;;5026418;28;20472;-75
2022/04/04 07:51:08;;;;;;;0.40;0.20;;;1.80;99.90;;;;;;5025962;28;20461;-75
2022/04/04 07:53:35;;;;;;;0.40;0.30;;;1.80;99.90;;;;;;5026055;28;20448;-76
2022/04/04 07:56:01;;;;;;;0.40;0.20;;;1.90;99.90;;;;;;5029662;28;20780;-76
2022/04/04 07:58:27;;;;;;;0.40;0.20;;;2.00;99.90;;;;;;5028170;28;20813;-77
2022/04/04 08:00:54;;;;;;;0.40;0.30;;;2.20;99.90;;;;;;5024002;28;20418;-83
2022/04/04 08:03:22;;;;;;;0.40;0.30;;;2.20;99.90;;;;;;5019281;28;20743;-77
2022/04/04 08:05:48;;;;;;;0.40;0.20;;;2.30;99.90;;;;;;5020281;28;20391;-75
2022/04/04 08:08:14;;;;;;;0.90;0.90;;;2.50;99.90;;;;;;5017730;28;20393;-76
2022/04/04 08:10:41;;;;;;;0.40;0.20;;;2.70;99.90;;;;;;5021920;28;20404;-76
2022/04/04 08:13:07;;;;;;;0.40;0.20;;;2.80;99.90;;;;;;5022449;28;20406;-76
2022/04/04 08:15:34;;;;;;;0.40;0.20;;;2.90;99.90;;;;;;5025495;28;20398;-76
2022/04/04 08:18:00;;;;;;;0.40;0.30;;;3.20;99.90;;;;;;5024271;28;20403;-79
2022/04/04 08:20:26;;;;;;;0.40;0.20;;;3.40;99.90;;;;;;5023245;28;20395;-76
2022/04/04 08:22:52;;;;;;;0.40;0.22;;;3.60;99.90;;;;;;5024808;28;20868;-76
2022/04/04 08:25:18;;;;;;;0.40;0.30;;;3.70;99.90;;;;;;5015204;28;20872;-76
2022/04/04 08:27:44;;;;;;;0.40;0.20;;;3.60;99.90;;;;;;5018849;28;20403;-77
2022/04/04 08:30:12;;;;;;;0.40;0.20;;;3.70;99.90;;;;;;5022965;28;20518;-77
2022/04/04 08:32:39;;;;;;;0.50;0.50;;;3.90;99.90;;;;;;5017476;28;20430;-77
2022/04/04 08:35:07;;;;;;;0.40;0.20;;;4.00;99.90;;;;;;5022323;28;20388;-76
2022/04/04 08:37:37;;;;;;;0.40;0.40;;;3.80;99.90;;;;;;5024796;28;20521;-76
2022/04/04 08:40:05;;;;;;;0.40;0.20;;;3.90;99.90;;;;;;5021488;28;20389;-76
2022/04/04 08:42:31;;;;;;;0.40;0.40;;;3.70;99.90;;;;;;5027469;28;20398;-76
2022/04/04 08:44:58;;;;;;;0.40;0.40;;;3.70;99.90;;;;;;5018505;28;20391;-77
2022/04/04 08:47:24;;;;;;;0.40;0.40;;;3.70;99.90;;;;;;5019531;28;20479;-78
2022/04/04 08:49:54;;;;;;;0.40;0.20;;;3.90;98.80;;;;;;5021026;28;20403;-77
2022/04/04 08:52:21;;;;;;;0.40;0.20;;;4.10;98.00;;;;;;5022204;28;20472;-77
2022/04/04 08:54:47;;;;;;;0.40;0.20;;;4.10;98.30;;;;;;5021804;28;20753;-77
2022/04/04 08:57:14;;;;;;;0.40;0.30;;;4.40;99.30;;;;;;5023569;28;20383;-77
2022/04/04 08:59:39;;;;;;;0.40;0.20;;;4.40;97.30;;;;;;5019729;28;20383;-78
2022/04/04 09:02:06;;;;;;;1.20;0.90;;;4.30;97.60;;;;;;5022781;28;20393;-78
2022/04/04 09:04:33;;;;;;;0.80;0.70;;;4.50;97.00;;;;;;5022190;28;20418;-77
2022/04/04 09:07:05;;;;;;;0.40;0.20;;;4.60;94.30;;;;;;5021953;28;20419;-77
2022/04/04 09:09:44;;;;;;;0.40;0.20;;;4.60;93.60;;;;;;5017908;28;20723;-77
2022/04/04 09:12:14;;;;;;;0.40;0.20;;;4.60;93.60;;;;;;5021490;28;20891;-76
2022/04/04 09:14:46;;;;;;;0.40;0.20;;;4.70;93.20;;;;;;5020709;28;20758;-78
2022/04/04 09:17:14;;;;;;;0.40;0.20;;;4.60;93.10;;;;;;5026170;28;20469;-80
2022/04/04 09:19:40;;;;;;;0.40;0.30;;;4.70;94.10;;;;;;5021505;28;20405;-75
2022/04/04 09:22:10;;;;;;;0.40;0.20;;;4.70;93.50;;;;;;5021304;28;20435;-76
2022/04/04 09:24:51;;;;;;;0.40;0.30;;;4.80;91.30;;;;;;5018905;28;20517;-78
2022/04/04 09:27:21;;;;;;;0.40;0.20;;;4.80;92.10;;;;;;5022815;28;20427;-77
2022/04/04 09:29:48;;;;;;;0.40;0.20;;;5.00;90.20;;;;;;5021716;28;20392;-77
2022/04/04 09:32:15;;;;;;;0.40;0.20;;;4.90;88.90;;;;;;5022013;28;20970;-78
2022/04/04 09:35:02;;;;;;;0.40;0.20;;;5.10;84.90;;;;;;5020051;28;20399;-80
2022/04/04 09:37:33;;;;;;;0.40;0.20;;;5.10;80.80;;;;;;5022883;28;20414;-76
2022/04/04 09:40:14;;;;;;;0.40;0.20;;;5.30;84.10;;;;;;5015690;28;20405;-78
2022/04/04 09:42:41;;;;;;;0.40;0.20;;;5.30;85.80;;;;;;5019959;28;20391;-81
2022/04/04 09:45:09;;;;;;;0.77;0.52;;;5.30;88.50;;;;;;5025196;28;20392;-78
2022/04/04 09:47:49;;;;;;;0.40;0.22;;;5.40;88.10;;;;;;5026490;28;20395;-81
2022/04/04 09:50:35;;;;;;;0.40;0.20;;;5.40;75.50;;;;;;5025222;28;20486;-77
2022/04/04 09:53:03;;;;;;;0.40;0.20;;;5.20;77.40;;;;;;5026495;28;20450;-76
2022/04/04 09:55:37;;;;;;;0.40;0.20;;;5.50;75.40;;;;;;5020159;28;20751;-77
2022/04/04 09:58:05;;;;;;;0.45;0.45;;;5.40;67.90;;;;;;5019499;28;20404;-79
2022/04/04 10:00:34;;;;;;;0.40;0.20;;;5.50;71.10;;;;;;5025295;28;21410;-77
2022/04/04 10:03:01;;;;;;;0.40;0.30;;;5.90;73.50;;;;;;5025075;28;20403;-77
2022/04/04 10:05:28;;;;;;;0.40;0.20;;;6.00;74.70;;;;;;5028145;28;20399;-77
2022/04/04 10:07:56;;;;;;;0.40;0.20;;;6.00;71.60;;;;;;5024692;28;20383;-80
2022/04/04 10:10:30;;;;;;;0.40;0.30;;;5.60;72.00;;;;;;5020670;28;20579;-81
2022/04/04 10:12:56;;;;;;;0.40;0.22;;;5.40;74.30;;;;;;5030442;28;20412;-79
2022/04/04 10:15:23;;;;;;;0.40;0.20;;;5.50;74.80;;;;;;5019813;28;20464;-75
2022/04/04 10:17:51;;;;;;;0.40;0.40;;;5.70;75.00;;;;;;5032658;28;20406;-75
2022/04/04 10:20:17;;;;;;;0.40;0.20;;;5.90;74.30;;;;;;5019796;28;20382;-77
2022/04/04 10:22:46;;;;;;;0.40;0.30;;;6.20;74.30;;;;;;5021675;28;20396;-76
2022/04/04 10:25:18;;;;;;;0.40;0.20;;;6.10;73.70;;;;;;5026105;28;20380;-76
2022/04/04 10:27:48;;;;;;;0.60;0.60;;;6.30;74.50;;;;;;5024274;28;20383;-76
2022/04/04 10:30:16;;;;;;;0.40;0.20;;;6.40;74.30;;;;;;5025146;28;20403;-74
2022/04/04 10:32:52;;;;;;;0.40;0.20;;;6.10;74.00;;;;;;5029882;28;20424;-78
2022/04/04 10:35:23;;;;;;;0.40;0.20;;;6.30;75.70;;;;;;5019648;28;20551;-73
2022/04/04 10:37:49;;;;;;;0.40;0.20;;;6.10;73.00;;;;;;5024977;28;20410;-72
2022/04/04 10:40:18;;;;;;;0.60;0.60;;;6.10;72.90;;;;;;5024655;28;20856;-73
2022/04/04 10:42:46;;;;;;;0.50;0.50;;;6.20;70.70;;;;;;5026057;28;20405;-71
2022/04/04 10:45:13;;;;;;;0.40;0.20;;;6.60;70.70;;;;;;5032488;28;20389;-72
2022/04/04 10:47:48;;;;;;;0.40;0.20;;;6.80;70.70;;;;;;5030167;28;20403;-71
2022/04/04 10:50:30;;;;;;;0.40;0.20;;;7.00;71.60;;;;;;5032354;28;20482;-70
2022/04/04 10:53:00;;;;;;;0.40;0.20;;;7.00;69.50;;;;;;5032068;28;20410;-71
2022/04/04 10:55:37;;;;;;;0.40;0.30;;;7.20;69.10;;;;;;5031336;28;20431;-72
2022/04/04 10:58:20;;;;;;;0.70;0.70;;;7.00;69.50;;;;;;5031578;28;20941;-72
2022/04/04 11:01:00;;;;;;;0.40;0.20;;;6.90;68.00;;;;;;5036760;28;20444;-71
2022/04/04 11:03:27;;;;;;;0.40;0.30;;;6.70;70.70;;;;;;5051403;28;20393;-72
2022/04/04 11:09:04;;;;;;;0.40;0.20;;;6.80;68.40;;;;;;5031420;28;20453;-70
2022/04/04 11:12:11;;;;;;;0.40;0.20;;;6.80;69.00;;;;;;5011291;28;20872;-73
2022/04/04 11:14:37;;;;;;;0.40;0.33;;;7.10;69.90;;;;;;5011619;28;20476;-71
2022/04/04 11:17:06;;;;;;;0.52;0.30;;;7.30;72.90;;;;;;5012076;28;20743;-70
2022/04/04 11:19:52;;;;;;;3.80;1.00;;;7.70;70.00;;;;;;5012110;28;20428;-71
2022/04/04 11:22:27;;;;;;;0.50;0.50;;;7.80;68.60;;;;;;5011676;28;20427;-70
2022/04/04 11:25:04;;;;;;;0.40;0.20;;;7.50;70.70;;;;;;5011437;28;20415;-70
2022/04/04 11:27:35;;;;;;;0.40;0.30;;;7.60;73.50;;;;;;5021179;28;20483;-70
2022/04/04 11:30:22;;;;;;;0.40;0.20;;;7.70;73.90;;;;;;5031072;28;20453;-71
2022/04/04 11:32:54;;;;;;;0.40;0.20;;;8.50;71.10;;;;;;5030771;28;20411;-71
2022/04/04 11:35:23;;;;;;;0.40;0.20;;;8.50;74.70;;;;;;5030502;28;20764;-71
2022/04/04 11:37:59;;;;;;;0.40;0.30;;;9.90;67.30;;;;;;5030800;28;20387;-72
2022/04/04 11:40:38;;;;;;;0.40;0.30;;;9.90;60.40;;;;;;5031723;28;20389;-71
2022/04/04 11:43:15;;;;;;;0.70;0.50;;;9.30;62.90;;;;;;5036528;28;20480;-72
2022/04/04 11:45:42;;;;;;;1.95;0.80;;;9.30;63.20;;;;;;5032385;28;20385;-72
2022/04/04 11:48:23;;;;;;;0.90;0.70;;;9.50;63.70;;;;;;5033530;28;20388;-72
2022/04/04 11:50:51;;;;;;;0.40;0.20;;;10.10;62.10;;;;;;5031007;28;20417;-74
2022/04/04 11:53:25;;;;;;;1.02;0.40;;;10.30;64.20;;;;;;5030676;28;20763;-72
2022/04/04 11:55:51;;;;;;;0.70;0.60;;;10.80;64.80;;;;;;5027777;28;20399;-72
2022/04/04 11:58:20;;;;;;;0.40;0.30;;;11.70;59.30;;;;;;5026484;28;20428;-71
2022/04/04 12:00:55;;;;;;;0.50;0.40;;;11.30;57.40;;;;;;5018182;28;20469;-71
2022/04/04 12:03:23;;;;;;;0.40;0.30;;;11.30;60.20;;;;;;5022543;28;20388;-71
2022/04/04 12:05:50;;;;;;;0.70;0.70;;;10.30;58.90;;;;;;5021875;28;20402;-71
2022/04/04 12:08:21;;;;;;;0.40;0.30;;;10.60;58.80;;;;;;5020357;28;20879;-71
2022/04/04 12:10:49;;;;;;;0.40;0.25;;;10.70;59.30;;;;;;5021051;28;20478;-71
2022/04/04 12:13:21;;;;;;;0.40;0.40;;;10.20;60.30;;;;;;5018235;28;20482;-71
2022/04/04 12:15:52;;;;;;;0.40;0.30;;;11.10;59.00;;;;;;5019332;28;20401;-71
2022/04/04 12:18:22;;;;;;;1.40;0.60;;;10.70;59.30;;;;;;5018472;28;20387;-71
2022/04/04 12:20:50;;;;;;;0.40;0.20;;;11.20;58.60;;;;;;5017243;28;20793;-71
2022/04/04 12:26:09;;;;;;;0.40;0.20;;;10.90;58.20;;;;;;5022877;28;20410;-71
2022/04/04 12:28:48;;;;;;;0.40;0.30;;;10.70;59.50;;;;;;5034906;28;20447;-71
2022/04/04 12:31:21;;;;;;;0.40;0.20;;;11.20;61.20;;;;;;5034477;28;20411;-72
2022/04/04 12:34:02;;;;;;;0.40;0.20;;;10.90;58.10;;;;;;5028498;28;20438;-72
2022/04/04 12:36:38;;;;;;;0.40;0.20;;;10.30;58.90;;;;;;5027259;28;20391;-71
2022/04/04 12:39:05;;;;;;;0.40;0.30;;;10.90;58.80;;;;;;5030232;28;20572;-71
2022/04/04 12:41:44;;;;;;;0.40;0.30;;;11.20;58.30;;;;;;5029920;28;20779;-73
2022/04/04 12:44:11;;;;;;;0.50;0.50;;;11.50;57.10;;;;;;5030905;28;20406;-71
2022/04/04 12:46:38;;;;;;;0.55;0.47;;;11.40;58.60;;;;;;5029401;28;20497;-71
2022/04/04 12:49:19;;;;;;;0.40;0.30;;;11.10;59.20;;;;;;5030133;28;20388;-71
2022/04/04 12:51:58;;;;;;;0.40;0.30;;;10.50;59.20;;;;;;5030629;28;20435;-73
2022/04/04 12:54:27;;;;;;;0.50;0.50;;;10.00;59.70;;;;;;5019770;28;20434;-72
2022/04/04 12:56:54;;;;;;;0.90;0.60;;;10.30;63.10;;;;;;5023197;28;20457;-71
2022/04/04 12:59:20;;;;;;;1.30;0.82;;;10.80;62.50;;;;;;5016007;28;20389;-70
2022/04/04 13:02:02;;;;;;;0.40;0.20;;;10.70;60.20;;;;;;5017306;28;20396;-70
2022/04/04 13:04:29;;;;;;;0.40;0.23;;;10.80;62.30;;;;;;5015543;28;20475;-74
2022/04/04 13:06:57;;;;;;;0.50;0.50;;;10.90;59.00;;;;;;5010518;28;20476;-70